sensor_id;sensor_type;location;lat;lon;timestamp;P1;durP1;ratioP1;P2;durP2;ratioP2
58139;SDS011;53185;47.378;18.922;2023-04-30T00:02:00;12.50;;;6.10;;
58139;SDS011;53185;47.378;18.922;2023-04-30T00:04:27;11.73;;;6.75;;
58139;SDS011;53185;47.378;18.922;2023-04-30T00:06:56;14.35;;;7.25;;
58139;SDS011;53185;47.378;18.922;2023-04-30T00:09:33;11.95;;;7.20;;
58139;SDS011;53185;47.378;18.922;2023-04-30T00:12:00;11.30;;;6.37;;
58139;SDS011;53185;47.378;18.922;2023-04-30T00:14:28;16.35;;;7.45;;
58139;SDS011;53185;47.378;18.922;2023-04-30T00:16:55;11.95;;;6.97;;
58139;SDS011;53185;47.378;18.922;2023-04-30T00:19:23;9.07;;;6.10;;
58139;SDS011;53185;47.378;18.922;2023-04-30T00:21:50;14.77;;;7.80;;
58139;SDS011;53185;47.378;18.922;2023-04-30T00:24:18;22.90;;;7.37;;
58139;SDS011;53185;47.378;18.922;2023-04-30T00:26:45;16.52;;;6.75;;
58139;SDS011;53185;47.378;18.922;2023-04-30T00:29:12;15.25;;;8.23;;
58139;SDS011;53185;47.378;18.922;2023-04-30T00:31:40;18.65;;;8.45;;
58139;SDS011;53185;47.378;18.922;2023-04-30T00:34:07;16.95;;;10.07;;
58139;SDS011;53185;47.378;18.922;2023-04-30T00:36:35;16.33;;;9.10;;
58139;SDS011;53185;47.378;18.922;2023-04-30T00:39:02;23.67;;;10.40;;
58139;SDS011;53185;47.378;18.922;2023-04-30T00:41:30;17.55;;;9.73;;
58139;SDS011;53185;47.378;18.922;2023-04-30T00:43:57;23.08;;;9.02;;
58139;SDS011;53185;47.378;18.922;2023-04-30T00:46:25;25.77;;;9.48;;
58139;SDS011;53185;47.378;18.922;2023-04-30T00:48:53;18.55;;;9.35;;
58139;SDS011;53185;47.378;18.922;2023-04-30T00:51:20;17.73;;;9.27;;
58139;SDS011;53185;47.378;18.922;2023-04-30T00:53:48;16.20;;;8.63;;
58139;SDS011;53185;47.378;18.922;2023-04-30T00:56:15;12.98;;;8.50;;
58139;SDS011;53185;47.378;18.922;2023-04-30T00:58:42;16.33;;;8.27;;
58139;SDS011;53185;47.378;18.922;2023-04-30T01:01:10;14.75;;;8.43;;
58139;SDS011;53185;47.378;18.922;2023-04-30T01:03:37;16.58;;;8.18;;
58139;SDS011;53185;47.378;18.922;2023-04-30T01:06:05;12.18;;;7.32;;
58139;SDS011;53185;47.378;18.922;2023-04-30T01:08:33;14.05;;;7.68;;
58139;SDS011;53185;47.378;18.922;2023-04-30T01:11:10;13.32;;;7.35;;
58139;SDS011;53185;47.378;18.922;2023-04-30T01:16:25;12.02;;;8.20;;
58139;SDS011;53185;47.378;18.922;2023-04-30T01:18:55;9.38;;;6.95;;
58139;SDS011;53185;47.378;18.922;2023-04-30T01:21:25;14.30;;;7.47;;
58139;SDS011;53185;47.378;18.922;2023-04-30T01:26:52;13.70;;;7.32;;
58139;SDS011;53185;47.378;18.922;2023-04-30T01:29:27;11.95;;;7.25;;
58139;SDS011;53185;47.378;18.922;2023-04-30T01:31:55;10.77;;;7.18;;
58139;SDS011;53185;47.378;18.922;2023-04-30T01:34:23;15.32;;;8.13;;
58139;SDS011;53185;47.378;18.922;2023-04-30T01:39:26;11.38;;;7.90;;
58139;SDS011;53185;47.378;18.922;2023-04-30T01:50:02;15.63;;;8.27;;
58139;SDS011;53185;47.378;18.922;2023-04-30T01:52:45;16.87;;;8.88;;
58139;SDS011;53185;47.378;18.922;2023-04-30T01:55:20;14.85;;;8.73;;
58139;SDS011;53185;47.378;18.922;2023-04-30T02:00:25;14.23;;;8.38;;
58139;SDS011;53185;47.378;18.922;2023-04-30T02:02:54;13.48;;;8.77;;
58139;SDS011;53185;47.378;18.922;2023-04-30T02:05:21;14.93;;;8.45;;
58139;SDS011;53185;47.378;18.922;2023-04-30T02:07:49;13.05;;;9.20;;
58139;SDS011;53185;47.378;18.922;2023-04-30T02:10:19;13.48;;;8.55;;
58139;SDS011;53185;47.378;18.922;2023-04-30T02:12:48;14.32;;;8.75;;
58139;SDS011;53185;47.378;18.922;2023-04-30T02:15:15;16.55;;;8.68;;
58139;SDS011;53185;47.378;18.922;2023-04-30T02:17:43;15.57;;;8.85;;
58139;SDS011;53185;47.378;18.922;2023-04-30T02:20:10;11.93;;;8.05;;
58139;SDS011;53185;47.378;18.922;2023-04-30T02:22:38;12.98;;;7.72;;
58139;SDS011;53185;47.378;18.922;2023-04-30T02:25:06;13.20;;;8.57;;
58139;SDS011;53185;47.378;18.922;2023-04-30T02:27:33;15.07;;;7.22;;
58139;SDS011;53185;47.378;18.922;2023-04-30T02:30:01;11.90;;;7.93;;
58139;SDS011;53185;47.378;18.922;2023-04-30T02:32:29;18.62;;;8.68;;
58139;SDS011;53185;47.378;18.922;2023-04-30T02:34:56;18.85;;;8.10;;
58139;SDS011;53185;47.378;18.922;2023-04-30T02:37:24;14.63;;;8.32;;
58139;SDS011;53185;47.378;18.922;2023-04-30T02:39:52;23.42;;;10.85;;
58139;SDS011;53185;47.378;18.922;2023-04-30T02:42:20;19.70;;;11.00;;
58139;SDS011;53185;47.378;18.922;2023-04-30T02:44:47;21.92;;;9.70;;
58139;SDS011;53185;47.378;18.922;2023-04-30T02:47:14;15.80;;;9.35;;
58139;SDS011;53185;47.378;18.922;2023-04-30T02:49:42;15.90;;;8.93;;
58139;SDS011;53185;47.378;18.922;2023-04-30T02:52:10;16.12;;;9.23;;
58139;SDS011;53185;47.378;18.922;2023-04-30T02:54:37;18.00;;;8.90;;
58139;SDS011;53185;47.378;18.922;2023-04-30T02:57:05;16.12;;;9.45;;
58139;SDS011;53185;47.378;18.922;2023-04-30T02:59:33;16.48;;;10.32;;
58139;SDS011;53185;47.378;18.922;2023-04-30T03:02:01;18.52;;;11.15;;
58139;SDS011;53185;47.378;18.922;2023-04-30T03:04:29;17.35;;;10.02;;
58139;SDS011;53185;47.378;18.922;2023-04-30T03:06:56;21.73;;;11.02;;
58139;SDS011;53185;47.378;18.922;2023-04-30T03:09:24;18.75;;;11.02;;
58139;SDS011;53185;47.378;18.922;2023-04-30T03:11:51;19.67;;;10.13;;
58139;SDS011;53185;47.378;18.922;2023-04-30T03:14:18;16.92;;;10.32;;
58139;SDS011;53185;47.378;18.922;2023-04-30T03:16:46;17.35;;;10.23;;
58139;SDS011;53185;47.378;18.922;2023-04-30T03:19:14;17.83;;;10.73;;
58139;SDS011;53185;47.378;18.922;2023-04-30T03:21:41;18.45;;;9.77;;
58139;SDS011;53185;47.378;18.922;2023-04-30T03:24:08;16.90;;;8.90;;
58139;SDS011;53185;47.378;18.922;2023-04-30T03:26:36;19.23;;;9.88;;
58139;SDS011;53185;47.378;18.922;2023-04-30T03:29:03;14.45;;;9.63;;
58139;SDS011;53185;47.378;18.922;2023-04-30T03:31:31;16.45;;;9.27;;
58139;SDS011;53185;47.378;18.922;2023-04-30T03:33:58;17.50;;;9.38;;
58139;SDS011;53185;47.378;18.922;2023-04-30T03:36:26;15.65;;;8.70;;
58139;SDS011;53185;47.378;18.922;2023-04-30T03:38:53;16.50;;;9.80;;
58139;SDS011;53185;47.378;18.922;2023-04-30T03:41:21;19.90;;;11.40;;
58139;SDS011;53185;47.378;18.922;2023-04-30T03:43:50;15.27;;;9.88;;
58139;SDS011;53185;47.378;18.922;2023-04-30T03:46:17;23.15;;;11.63;;
58139;SDS011;53185;47.378;18.922;2023-04-30T03:48:46;18.42;;;10.73;;
58139;SDS011;53185;47.378;18.922;2023-04-30T03:51:14;18.35;;;11.12;;
58139;SDS011;53185;47.378;18.922;2023-04-30T03:53:41;21.65;;;11.43;;
58139;SDS011;53185;47.378;18.922;2023-04-30T03:56:09;17.02;;;11.02;;
58139;SDS011;53185;47.378;18.922;2023-04-30T03:58:37;18.08;;;11.77;;
58139;SDS011;53185;47.378;18.922;2023-04-30T04:01:04;22.05;;;11.80;;
58139;SDS011;53185;47.378;18.922;2023-04-30T04:03:33;22.27;;;11.73;;
58139;SDS011;53185;47.378;18.922;2023-04-30T04:06:01;21.37;;;11.35;;
58139;SDS011;53185;47.378;18.922;2023-04-30T04:08:28;19.73;;;11.40;;
58139;SDS011;53185;47.378;18.922;2023-04-30T04:10:56;20.60;;;11.05;;
58139;SDS011;53185;47.378;18.922;2023-04-30T04:13:23;25.70;;;11.02;;
58139;SDS011;53185;47.378;18.922;2023-04-30T04:15:50;24.20;;;10.90;;
58139;SDS011;53185;47.378;18.922;2023-04-30T04:18:19;18.20;;;10.50;;
58139;SDS011;53185;47.378;18.922;2023-04-30T04:20:47;20.33;;;10.77;;
58139;SDS011;53185;47.378;18.922;2023-04-30T04:23:14;19.42;;;11.25;;
58139;SDS011;53185;47.378;18.922;2023-04-30T04:25:42;19.60;;;12.48;;
58139;SDS011;53185;47.378;18.922;2023-04-30T04:28:10;20.48;;;12.52;;
58139;SDS011;53185;47.378;18.922;2023-04-30T04:30:38;20.30;;;12.73;;
58139;SDS011;53185;47.378;18.922;2023-04-30T04:33:07;26.90;;;12.60;;
58139;SDS011;53185;47.378;18.922;2023-04-30T04:35:35;20.50;;;11.90;;
58139;SDS011;53185;47.378;18.922;2023-04-30T04:38:02;19.90;;;12.40;;
58139;SDS011;53185;47.378;18.922;2023-04-30T04:40:31;21.40;;;12.60;;
58139;SDS011;53185;47.378;18.922;2023-04-30T04:42:59;23.20;;;12.85;;
58139;SDS011;53185;47.378;18.922;2023-04-30T04:45:26;22.17;;;13.10;;
58139;SDS011;53185;47.378;18.922;2023-04-30T04:47:54;22.25;;;12.75;;
58139;SDS011;53185;47.378;18.922;2023-04-30T04:50:22;20.75;;;12.15;;
58139;SDS011;53185;47.378;18.922;2023-04-30T04:52:49;19.55;;;12.88;;
58139;SDS011;53185;47.378;18.922;2023-04-30T04:55:17;17.67;;;12.25;;
58139;SDS011;53185;47.378;18.922;2023-04-30T04:57:45;20.10;;;12.37;;
58139;SDS011;53185;47.378;18.922;2023-04-30T05:00:12;19.15;;;12.68;;
58139;SDS011;53185;47.378;18.922;2023-04-30T05:02:40;20.35;;;12.80;;
58139;SDS011;53185;47.378;18.922;2023-04-30T05:05:08;20.20;;;13.65;;
58139;SDS011;53185;47.378;18.922;2023-04-30T05:07:36;21.42;;;11.82;;
58139;SDS011;53185;47.378;18.922;2023-04-30T05:10:04;20.45;;;13.00;;
58139;SDS011;53185;47.378;18.922;2023-04-30T05:12:32;22.02;;;12.27;;
58139;SDS011;53185;47.378;18.922;2023-04-30T05:15:00;19.17;;;12.37;;
58139;SDS011;53185;47.378;18.922;2023-04-30T05:17:27;16.08;;;11.00;;
58139;SDS011;53185;47.378;18.922;2023-04-30T05:19:55;19.45;;;11.88;;
58139;SDS011;53185;47.378;18.922;2023-04-30T05:22:22;16.15;;;10.32;;
58139;SDS011;53185;47.378;18.922;2023-04-30T05:24:50;13.10;;;10.23;;
58139;SDS011;53185;47.378;18.922;2023-04-30T05:27:18;15.13;;;10.23;;
58139;SDS011;53185;47.378;18.922;2023-04-30T05:29:46;18.40;;;10.63;;
58139;SDS011;53185;47.378;18.922;2023-04-30T05:32:14;15.73;;;10.35;;
58139;SDS011;53185;47.378;18.922;2023-04-30T05:34:41;14.45;;;10.02;;
58139;SDS011;53185;47.378;18.922;2023-04-30T05:37:09;13.05;;;9.50;;
58139;SDS011;53185;47.378;18.922;2023-04-30T05:39:36;15.57;;;10.13;;
58139;SDS011;53185;47.378;18.922;2023-04-30T05:42:03;12.05;;;8.38;;
58139;SDS011;53185;47.378;18.922;2023-04-30T05:44:31;16.55;;;11.25;;
58139;SDS011;53185;47.378;18.922;2023-04-30T05:46:58;13.35;;;9.45;;
58139;SDS011;53185;47.378;18.922;2023-04-30T05:49:26;10.85;;;8.60;;
58139;SDS011;53185;47.378;18.922;2023-04-30T05:51:53;10.77;;;8.55;;
58139;SDS011;53185;47.378;18.922;2023-04-30T05:54:20;9.65;;;8.15;;
58139;SDS011;53185;47.378;18.922;2023-04-30T05:56:48;10.20;;;8.63;;
58139;SDS011;53185;47.378;18.922;2023-04-30T05:59:15;17.35;;;9.13;;
58139;SDS011;53185;47.378;18.922;2023-04-30T06:01:42;13.85;;;8.77;;
58139;SDS011;53185;47.378;18.922;2023-04-30T06:04:10;15.15;;;9.40;;
58139;SDS011;53185;47.378;18.922;2023-04-30T06:06:37;11.00;;;8.80;;
58139;SDS011;53185;47.378;18.922;2023-04-30T06:09:04;12.65;;;8.88;;
58139;SDS011;53185;47.378;18.922;2023-04-30T06:11:34;10.10;;;8.45;;
58139;SDS011;53185;47.378;18.922;2023-04-30T06:14:03;14.23;;;8.60;;
58139;SDS011;53185;47.378;18.922;2023-04-30T06:16:30;12.13;;;8.63;;
58139;SDS011;53185;47.378;18.922;2023-04-30T06:18:58;13.70;;;8.13;;
58139;SDS011;53185;47.378;18.922;2023-04-30T06:21:25;8.98;;;7.78;;
58139;SDS011;53185;47.378;18.922;2023-04-30T06:23:52;8.98;;;7.72;;
58139;SDS011;53185;47.378;18.922;2023-04-30T06:26:20;13.25;;;7.72;;
58139;SDS011;53185;47.378;18.922;2023-04-30T06:28:47;8.93;;;6.97;;
58139;SDS011;53185;47.378;18.922;2023-04-30T06:31:14;10.48;;;7.07;;
58139;SDS011;53185;47.378;18.922;2023-04-30T06:33:42;9.52;;;7.72;;
58139;SDS011;53185;47.378;18.922;2023-04-30T06:36:09;8.27;;;7.32;;
58139;SDS011;53185;47.378;18.922;2023-04-30T06:38:37;10.90;;;7.03;;
58139;SDS011;53185;47.378;18.922;2023-04-30T06:41:04;7.68;;;6.87;;
58139;SDS011;53185;47.378;18.922;2023-04-30T06:43:32;7.90;;;7.10;;
58139;SDS011;53185;47.378;18.922;2023-04-30T06:45:59;9.50;;;7.35;;
58139;SDS011;53185;47.378;18.922;2023-04-30T06:48:27;11.95;;;7.32;;
58139;SDS011;53185;47.378;18.922;2023-04-30T06:50:54;8.95;;;6.45;;
58139;SDS011;53185;47.378;18.922;2023-04-30T06:53:21;8.32;;;6.70;;
58139;SDS011;53185;47.378;18.922;2023-04-30T06:55:49;7.10;;;6.40;;
58139;SDS011;53185;47.378;18.922;2023-04-30T06:58:17;7.43;;;6.47;;
58139;SDS011;53185;47.378;18.922;2023-04-30T07:00:45;6.90;;;6.20;;
58139;SDS011;53185;47.378;18.922;2023-04-30T07:03:13;12.63;;;6.68;;
58139;SDS011;53185;47.378;18.922;2023-04-30T07:05:40;7.03;;;6.00;;
58139;SDS011;53185;47.378;18.922;2023-04-30T07:08:07;9.13;;;6.40;;
58139;SDS011;53185;47.378;18.922;2023-04-30T07:10:35;7.50;;;6.65;;
58139;SDS011;53185;47.378;18.922;2023-04-30T07:13:02;9.55;;;6.65;;
58139;SDS011;53185;47.378;18.922;2023-04-30T07:15:30;12.30;;;6.68;;
58139;SDS011;53185;47.378;18.922;2023-04-30T07:17:57;7.75;;;6.78;;
58139;SDS011;53185;47.378;18.922;2023-04-30T07:20:25;9.85;;;6.28;;
58139;SDS011;53185;47.378;18.922;2023-04-30T07:22:52;7.97;;;6.70;;
58139;SDS011;53185;47.378;18.922;2023-04-30T07:25:21;14.83;;;7.20;;
58139;SDS011;53185;47.378;18.922;2023-04-30T07:27:50;8.27;;;6.57;;
58139;SDS011;53185;47.378;18.922;2023-04-30T07:32:46;7.55;;;6.15;;
58139;SDS011;53185;47.378;18.922;2023-04-30T07:35:14;7.60;;;6.20;;
58139;SDS011;53185;47.378;18.922;2023-04-30T07:37:41;7.72;;;5.90;;
58139;SDS011;53185;47.378;18.922;2023-04-30T07:40:10;7.12;;;5.28;;
58139;SDS011;53185;47.378;18.922;2023-04-30T07:42:54;9.35;;;5.37;;
58139;SDS011;53185;47.378;18.922;2023-04-30T07:45:22;6.85;;;5.28;;
58139;SDS011;53185;47.378;18.922;2023-04-30T07:47:49;6.20;;;5.15;;
58139;SDS011;53185;47.378;18.922;2023-04-30T07:50:17;6.12;;;5.53;;
58139;SDS011;53185;47.378;18.922;2023-04-30T07:52:45;7.80;;;5.95;;
58139;SDS011;53185;47.378;18.922;2023-04-30T07:55:15;7.28;;;5.68;;
58139;SDS011;53185;47.378;18.922;2023-04-30T07:57:42;7.87;;;5.50;;
58139;SDS011;53185;47.378;18.922;2023-04-30T08:00:10;5.97;;;5.20;;
58139;SDS011;53185;47.378;18.922;2023-04-30T08:02:39;8.88;;;4.85;;
58139;SDS011;53185;47.378;18.922;2023-04-30T08:05:08;6.10;;;4.62;;
58139;SDS011;53185;47.378;18.922;2023-04-30T08:07:35;5.60;;;4.70;;
58139;SDS011;53185;47.378;18.922;2023-04-30T08:10:03;6.30;;;5.47;;
58139;SDS011;53185;47.378;18.922;2023-04-30T08:12:31;6.78;;;5.40;;
58139;SDS011;53185;47.378;18.922;2023-04-30T08:14:59;11.75;;;7.82;;
58139;SDS011;53185;47.378;18.922;2023-04-30T08:17:27;6.03;;;5.43;;
58139;SDS011;53185;47.378;18.922;2023-04-30T08:19:54;13.20;;;9.20;;
58139;SDS011;53185;47.378;18.922;2023-04-30T08:22:23;7.62;;;4.90;;
58139;SDS011;53185;47.378;18.922;2023-04-30T08:24:50;7.82;;;4.47;;
58139;SDS011;53185;47.378;18.922;2023-04-30T08:27:18;6.43;;;3.53;;
58139;SDS011;53185;47.378;18.922;2023-04-30T08:29:45;6.87;;;3.62;;
58139;SDS011;53185;47.378;18.922;2023-04-30T08:32:13;5.35;;;3.40;;
58139;SDS011;53185;47.378;18.922;2023-04-30T08:34:40;4.05;;;2.87;;
58139;SDS011;53185;47.378;18.922;2023-04-30T08:37:09;5.78;;;4.22;;
58139;SDS011;53185;47.378;18.922;2023-04-30T08:39:37;5.90;;;3.30;;
58139;SDS011;53185;47.378;18.922;2023-04-30T08:42:07;4.93;;;3.05;;
58139;SDS011;53185;47.378;18.922;2023-04-30T08:47:10;4.75;;;3.50;;
58139;SDS011;53185;47.378;18.922;2023-04-30T08:49:40;6.65;;;3.28;;
58139;SDS011;53185;47.378;18.922;2023-04-30T08:52:08;3.70;;;2.85;;
58139;SDS011;53185;47.378;18.922;2023-04-30T08:54:36;3.80;;;2.75;;
58139;SDS011;53185;47.378;18.922;2023-04-30T09:00:34;13.68;;;3.53;;
58139;SDS011;53185;47.378;18.922;2023-04-30T09:03:04;3.62;;;2.58;;
58139;SDS011;53185;47.378;18.922;2023-04-30T09:05:32;3.50;;;2.28;;
58139;SDS011;53185;47.378;18.922;2023-04-30T09:08:00;4.65;;;2.50;;
58139;SDS011;53185;47.378;18.922;2023-04-30T09:10:31;3.17;;;1.92;;
58139;SDS011;53185;47.378;18.922;2023-04-30T09:13:05;4.22;;;2.60;;
58139;SDS011;53185;47.378;18.922;2023-04-30T09:15:35;9.70;;;3.10;;
58139;SDS011;53185;47.378;18.922;2023-04-30T09:20:34;2.97;;;2.50;;
58139;SDS011;53185;47.378;18.922;2023-04-30T09:23:08;4.22;;;2.30;;
58139;SDS011;53185;47.378;18.922;2023-04-30T09:25:42;5.47;;;2.70;;
58139;SDS011;53185;47.378;18.922;2023-04-30T09:28:10;4.03;;;2.47;;
58139;SDS011;53185;47.378;18.922;2023-04-30T09:30:40;3.10;;;2.00;;
58139;SDS011;53185;47.378;18.922;2023-04-30T09:33:08;4.03;;;2.60;;
58139;SDS011;53185;47.378;18.922;2023-04-30T09:35:38;3.90;;;3.12;;
58139;SDS011;53185;47.378;18.922;2023-04-30T09:38:24;3.83;;;2.92;;
58139;SDS011;53185;47.378;18.922;2023-04-30T09:40:52;3.30;;;2.90;;
58139;SDS011;53185;47.378;18.922;2023-04-30T09:43:20;5.20;;;2.65;;
58139;SDS011;53185;47.378;18.922;2023-04-30T09:45:48;7.75;;;3.25;;
58139;SDS011;53185;47.378;18.922;2023-04-30T09:51:59;3.50;;;2.00;;
58139;SDS011;53185;47.378;18.922;2023-04-30T09:54:28;4.70;;;2.97;;
58139;SDS011;53185;47.378;18.922;2023-04-30T09:56:57;4.45;;;2.62;;
58139;SDS011;53185;47.378;18.922;2023-04-30T09:59:34;3.65;;;2.58;;
58139;SDS011;53185;47.378;18.922;2023-04-30T10:02:04;3.17;;;1.85;;
58139;SDS011;53185;47.378;18.922;2023-04-30T10:04:36;3.12;;;1.60;;
58139;SDS011;53185;47.378;18.922;2023-04-30T10:07:07;2.95;;;1.80;;
58139;SDS011;53185;47.378;18.922;2023-04-30T10:09:41;2.28;;;2.08;;
58139;SDS011;53185;47.378;18.922;2023-04-30T10:12:33;3.53;;;1.95;;
58139;SDS011;53185;47.378;18.922;2023-04-30T10:15:19;2.85;;;2.22;;
58139;SDS011;53185;47.378;18.922;2023-04-30T10:21:19;3.35;;;2.10;;
58139;SDS011;53185;47.378;18.922;2023-04-30T10:27:19;8.48;;;2.28;;
58139;SDS011;53185;47.378;18.922;2023-04-30T10:29:47;6.32;;;3.20;;
58139;SDS011;53185;47.378;18.922;2023-04-30T10:32:14;2.95;;;2.22;;
58139;SDS011;53185;47.378;18.922;2023-04-30T10:37:23;6.95;;;2.25;;
58139;SDS011;53185;47.378;18.922;2023-04-30T10:43:28;2.60;;;1.90;;
58139;SDS011;53185;47.378;18.922;2023-04-30T10:45:57;2.17;;;1.87;;
58139;SDS011;53185;47.378;18.922;2023-04-30T10:48:25;7.50;;;3.47;;
58139;SDS011;53185;47.378;18.922;2023-04-30T10:50:57;3.05;;;2.15;;
58139;SDS011;53185;47.378;18.922;2023-04-30T10:53:25;32.13;;;24.92;;
58139;SDS011;53185;47.378;18.922;2023-04-30T10:56:01;4.70;;;2.17;;
58139;SDS011;53185;47.378;18.922;2023-04-30T10:58:39;3.15;;;2.15;;
58139;SDS011;53185;47.378;18.922;2023-04-30T11:01:07;5.47;;;2.25;;
58139;SDS011;53185;47.378;18.922;2023-04-30T11:03:40;2.53;;;1.75;;
58139;SDS011;53185;47.378;18.922;2023-04-30T11:06:12;5.87;;;2.50;;
58139;SDS011;53185;47.378;18.922;2023-04-30T11:08:42;2.00;;;1.77;;
58139;SDS011;53185;47.378;18.922;2023-04-30T11:11:16;2.20;;;1.92;;
58139;SDS011;53185;47.378;18.922;2023-04-30T11:13:45;6.00;;;1.70;;
58139;SDS011;53185;47.378;18.922;2023-04-30T11:16:17;3.72;;;1.65;;
58139;SDS011;53185;47.378;18.922;2023-04-30T11:18:46;3.75;;;1.42;;
58139;SDS011;53185;47.378;18.922;2023-04-30T11:21:15;2.22;;;2.00;;
58139;SDS011;53185;47.378;18.922;2023-04-30T11:23:42;2.10;;;1.70;;
58139;SDS011;53185;47.378;18.922;2023-04-30T11:26:10;2.42;;;1.95;;
58139;SDS011;53185;47.378;18.922;2023-04-30T11:28:39;3.75;;;2.10;;
58139;SDS011;53185;47.378;18.922;2023-04-30T11:31:17;3.30;;;2.17;;
58139;SDS011;53185;47.378;18.922;2023-04-30T11:33:45;4.30;;;2.62;;
58139;SDS011;53185;47.378;18.922;2023-04-30T11:36:12;4.10;;;2.20;;
58139;SDS011;53185;47.378;18.922;2023-04-30T11:38:40;7.00;;;3.40;;
58139;SDS011;53185;47.378;18.922;2023-04-30T11:41:10;3.17;;;1.85;;
58139;SDS011;53185;47.378;18.922;2023-04-30T11:43:38;3.78;;;2.42;;
58139;SDS011;53185;47.378;18.922;2023-04-30T11:46:10;3.55;;;2.28;;
58139;SDS011;53185;47.378;18.922;2023-04-30T11:48:39;5.05;;;2.72;;
58139;SDS011;53185;47.378;18.922;2023-04-30T11:51:18;3.17;;;1.90;;
58139;SDS011;53185;47.378;18.922;2023-04-30T11:53:47;7.47;;;4.03;;
58139;SDS011;53185;47.378;18.922;2023-04-30T11:56:22;3.92;;;1.83;;
58139;SDS011;53185;47.378;18.922;2023-04-30T11:58:51;3.08;;;1.80;;
58139;SDS011;53185;47.378;18.922;2023-04-30T12:01:21;2.03;;;1.62;;
58139;SDS011;53185;47.378;18.922;2023-04-30T12:03:53;2.28;;;1.60;;
58139;SDS011;53185;47.378;18.922;2023-04-30T12:06:24;2.65;;;1.80;;
58139;SDS011;53185;47.378;18.922;2023-04-30T12:08:54;3.45;;;2.00;;
58139;SDS011;53185;47.378;18.922;2023-04-30T12:11:27;1.97;;;1.77;;
58139;SDS011;53185;47.378;18.922;2023-04-30T12:13:57;5.25;;;1.60;;
58139;SDS011;53185;47.378;18.922;2023-04-30T12:16:39;2.10;;;1.50;;
58139;SDS011;53185;47.378;18.922;2023-04-30T12:19:17;3.00;;;2.10;;
58139;SDS011;53185;47.378;18.922;2023-04-30T12:21:46;1.60;;;1.40;;
58139;SDS011;53185;47.378;18.922;2023-04-30T12:24:15;3.35;;;1.77;;
58139;SDS011;53185;47.378;18.922;2023-04-30T12:26:44;1.70;;;1.50;;
58139;SDS011;53185;47.378;18.922;2023-04-30T12:29:13;3.15;;;1.60;;
58139;SDS011;53185;47.378;18.922;2023-04-30T12:31:42;2.95;;;1.50;;
58139;SDS011;53185;47.378;18.922;2023-04-30T12:34:12;2.15;;;1.62;;
58139;SDS011;53185;47.378;18.922;2023-04-30T12:36:41;4.07;;;1.42;;
58139;SDS011;53185;47.378;18.922;2023-04-30T12:39:13;4.05;;;1.50;;
58139;SDS011;53185;47.378;18.922;2023-04-30T12:41:44;2.20;;;1.60;;
58139;SDS011;53185;47.378;18.922;2023-04-30T12:44:16;1.90;;;1.70;;
58139;SDS011;53185;47.378;18.922;2023-04-30T12:46:54;2.70;;;2.33;;
58139;SDS011;53185;47.378;18.922;2023-04-30T12:52:03;3.08;;;2.10;;
58139;SDS011;53185;47.378;18.922;2023-04-30T12:54:38;2.83;;;1.50;;
58139;SDS011;53185;47.378;18.922;2023-04-30T12:57:11;2.42;;;1.92;;
58139;SDS011;53185;47.378;18.922;2023-04-30T13:02:16;2.62;;;1.48;;
58139;SDS011;53185;47.378;18.922;2023-04-30T13:04:43;3.40;;;2.37;;
58139;SDS011;53185;47.378;18.922;2023-04-30T13:07:10;4.68;;;2.62;;
58139;SDS011;53185;47.378;18.922;2023-04-30T13:09:38;4.43;;;3.47;;
58139;SDS011;53185;47.378;18.922;2023-04-30T13:12:09;2.50;;;1.70;;
58139;SDS011;53185;47.378;18.922;2023-04-30T13:14:36;4.97;;;2.67;;
58139;SDS011;53185;47.378;18.922;2023-04-30T13:17:04;9.23;;;5.60;;
58139;SDS011;53185;47.378;18.922;2023-04-30T13:19:36;2.75;;;1.50;;
58139;SDS011;53185;47.378;18.922;2023-04-30T13:22:04;8.07;;;5.25;;
58139;SDS011;53185;47.378;18.922;2023-04-30T13:24:31;2.95;;;1.98;;
58139;SDS011;53185;47.378;18.922;2023-04-30T13:26:59;3.15;;;1.80;;
58139;SDS011;53185;47.378;18.922;2023-04-30T13:29:30;1.23;;;1.12;;
58139;SDS011;53185;47.378;18.922;2023-04-30T13:31:57;3.65;;;1.60;;
58139;SDS011;53185;47.378;18.922;2023-04-30T13:34:25;4.28;;;1.62;;
58139;SDS011;53185;47.378;18.922;2023-04-30T13:36:52;2.10;;;1.40;;
58139;SDS011;53185;47.378;18.922;2023-04-30T13:39:20;2.35;;;1.77;;
58139;SDS011;53185;47.378;18.922;2023-04-30T13:41:50;19.45;;;11.07;;
58139;SDS011;53185;47.378;18.922;2023-04-30T13:44:17;11.48;;;4.72;;
58139;SDS011;53185;47.378;18.922;2023-04-30T13:46:44;10.55;;;5.18;;
58139;SDS011;53185;47.378;18.922;2023-04-30T13:49:12;9.32;;;5.40;;
58139;SDS011;53185;47.378;18.922;2023-04-30T13:51:40;7.18;;;5.05;;
58139;SDS011;53185;47.378;18.922;2023-04-30T13:54:07;4.45;;;3.15;;
58139;SDS011;53185;47.378;18.922;2023-04-30T13:56:34;3.92;;;2.37;;
58139;SDS011;53185;47.378;18.922;2023-04-30T13:59:02;2.67;;;2.00;;
58139;SDS011;53185;47.378;18.922;2023-04-30T14:01:29;2.22;;;1.30;;
58139;SDS011;53185;47.378;18.922;2023-04-30T14:03:59;6.72;;;3.87;;
58139;SDS011;53185;47.378;18.922;2023-04-30T14:06:26;1.30;;;1.20;;
58139;SDS011;53185;47.378;18.922;2023-04-30T14:08:55;1.48;;;1.20;;
58139;SDS011;53185;47.378;18.922;2023-04-30T14:11:22;1.95;;;1.23;;
58139;SDS011;53185;47.378;18.922;2023-04-30T14:13:50;3.30;;;1.27;;
58139;SDS011;53185;47.378;18.922;2023-04-30T14:16:21;1.98;;;1.73;;
58139;SDS011;53185;47.378;18.922;2023-04-30T14:18:51;2.30;;;1.27;;
58139;SDS011;53185;47.378;18.922;2023-04-30T14:21:18;1.87;;;1.60;;
58139;SDS011;53185;47.378;18.922;2023-04-30T14:23:45;1.15;;;1.00;;
58139;SDS011;53185;47.378;18.922;2023-04-30T14:26:13;3.05;;;1.35;;
58139;SDS011;53185;47.378;18.922;2023-04-30T14:28:43;1.20;;;1.03;;
58139;SDS011;53185;47.378;18.922;2023-04-30T14:31:10;1.17;;;1.08;;
58139;SDS011;53185;47.378;18.922;2023-04-30T14:33:38;3.10;;;1.20;;
58139;SDS011;53185;47.378;18.922;2023-04-30T14:36:05;2.67;;;2.10;;
58139;SDS011;53185;47.378;18.922;2023-04-30T14:38:33;5.55;;;2.25;;
58139;SDS011;53185;47.378;18.922;2023-04-30T14:41:00;2.75;;;1.23;;
58139;SDS011;53185;47.378;18.922;2023-04-30T14:43:28;3.25;;;1.10;;
58139;SDS011;53185;47.378;18.922;2023-04-30T14:45:55;1.48;;;1.30;;
58139;SDS011;53185;47.378;18.922;2023-04-30T14:48:22;5.87;;;1.98;;
58139;SDS011;53185;47.378;18.922;2023-04-30T14:50:50;5.50;;;1.27;;
58139;SDS011;53185;47.378;18.922;2023-04-30T14:53:17;1.95;;;1.42;;
58139;SDS011;53185;47.378;18.922;2023-04-30T14:55:45;5.78;;;1.30;;
58139;SDS011;53185;47.378;18.922;2023-04-30T14:58:12;1.35;;;1.15;;
58139;SDS011;53185;47.378;18.922;2023-04-30T15:00:40;4.05;;;1.80;;
58139;SDS011;53185;47.378;18.922;2023-04-30T15:03:07;3.37;;;1.62;;
58139;SDS011;53185;47.378;18.922;2023-04-30T15:05:35;1.98;;;1.30;;
58139;SDS011;53185;47.378;18.922;2023-04-30T15:08:02;2.28;;;1.48;;
58139;SDS011;53185;47.378;18.922;2023-04-30T15:10:30;4.30;;;1.60;;
58139;SDS011;53185;47.378;18.922;2023-04-30T15:12:57;3.30;;;1.50;;
58139;SDS011;53185;47.378;18.922;2023-04-30T15:15:25;4.35;;;1.60;;
58139;SDS011;53185;47.378;18.922;2023-04-30T15:17:55;2.10;;;1.50;;
58139;SDS011;53185;47.378;18.922;2023-04-30T15:20:23;3.85;;;2.87;;
58139;SDS011;53185;47.378;18.922;2023-04-30T15:22:50;10.30;;;3.62;;
58139;SDS011;53185;47.378;18.922;2023-04-30T15:25:20;1.50;;;1.30;;
58139;SDS011;53185;47.378;18.922;2023-04-30T15:27:49;5.00;;;3.40;;